sensor_id;sensor_type;location;lat;lon;timestamp;temperature;humidity
18694;DHT22;9477;51.414;10.362;2022-07-21T00:00:20;27.80;52.90
18694;DHT22;9477;51.414;10.362;2022-07-21T00:02:23;27.70;53.30
18694;DHT22;9477;51.414;10.362;2022-07-21T00:04:26;27.80;53.40
18694;DHT22;9477;51.414;10.362;2022-07-21T00:06:30;27.50;53.90
18694;DHT22;9477;51.414;10.362;2022-07-21T00:08:33;27.40;54.10
18694;DHT22;9477;51.414;10.362;2022-07-21T00:10:36;27.50;54.20
18694;DHT22;9477;51.414;10.362;2022-07-21T00:12:39;27.50;54.10
18694;DHT22;9477;51.414;10.362;2022-07-21T00:14:42;27.50;54.10
18694;DHT22;9477;51.414;10.362;2022-07-21T00:16:45;27.30;54.30
18694;DHT22;9477;51.414;10.362;2022-07-21T00:18:48;27.30;54.60
18694;DHT22;9477;51.414;10.362;2022-07-21T00:20:51;27.40;54.40
18694;DHT22;9477;51.414;10.362;2022-07-21T00:22:55;27.30;54.30
18694;DHT22;9477;51.414;10.362;2022-07-21T00:24:58;27.20;54.40
18694;DHT22;9477;51.414;10.362;2022-07-21T00:27:01;26.90;54.60
18694;DHT22;9477;51.414;10.362;2022-07-21T00:29:04;27.10;54.70
18694;DHT22;9477;51.414;10.362;2022-07-21T00:31:07;27.20;54.50
18694;DHT22;9477;51.414;10.362;2022-07-21T00:33:09;27.20;54.30
18694;DHT22;9477;51.414;10.362;2022-07-21T00:35:13;27.10;54.40
18694;DHT22;9477;51.414;10.362;2022-07-21T00:37:15;27.00;54.50
18694;DHT22;9477;51.414;10.362;2022-07-21T00:39:19;27.00;54.60
18694;DHT22;9477;51.414;10.362;2022-07-21T00:41:22;27.00;54.50
18694;DHT22;9477;51.414;10.362;2022-07-21T00:43:25;27.10;54.30
18694;DHT22;9477;51.414;10.362;2022-07-21T00:45:28;27.30;54.10
18694;DHT22;9477;51.414;10.362;2022-07-21T00:47:31;27.20;53.90
18694;DHT22;9477;51.414;10.362;2022-07-21T00:49:34;27.20;54.00
18694;DHT22;9477;51.414;10.362;2022-07-21T00:51:37;27.20;53.90
18694;DHT22;9477;51.414;10.362;2022-07-21T00:53:40;27.00;54.10
18694;DHT22;9477;51.414;10.362;2022-07-21T00:55:44;27.10;54.20
18694;DHT22;9477;51.414;10.362;2022-07-21T00:57:48;27.10;54.10
18694;DHT22;9477;51.414;10.362;2022-07-21T00:59:51;27.10;54.60
18694;DHT22;9477;51.414;10.362;2022-07-21T01:01:54;27.20;54.70
18694;DHT22;9477;51.414;10.362;2022-07-21T01:03:57;27.20;55.50
18694;DHT22;9477;51.414;10.362;2022-07-21T01:06:00;27.10;56.10
18694;DHT22;9477;51.414;10.362;2022-07-21T01:08:04;26.80;56.60
18694;DHT22;9477;51.414;10.362;2022-07-21T01:10:09;27.00;56.10
18694;DHT22;9477;51.414;10.362;2022-07-21T01:12:13;27.10;56.40
18694;DHT22;9477;51.414;10.362;2022-07-21T01:14:16;27.20;56.10
18694;DHT22;9477;51.414;10.362;2022-07-21T01:16:20;27.20;55.80
18694;DHT22;9477;51.414;10.362;2022-07-21T01:18:23;27.30;55.80
18694;DHT22;9477;51.414;10.362;2022-07-21T01:20:26;27.20;56.20
18694;DHT22;9477;51.414;10.362;2022-07-21T01:22:31;27.20;56.30
18694;DHT22;9477;51.414;10.362;2022-07-21T01:24:34;27.20;56.80
18694;DHT22;9477;51.414;10.362;2022-07-21T01:26:41;27.00;56.90
18694;DHT22;9477;51.414;10.362;2022-07-21T01:28:44;26.90;57.10
18694;DHT22;9477;51.414;10.362;2022-07-21T01:30:47;26.80;57.40
18694;DHT22;9477;51.414;10.362;2022-07-21T01:32:50;26.80;57.60
18694;DHT22;9477;51.414;10.362;2022-07-21T01:34:53;26.70;57.70
18694;DHT22;9477;51.414;10.362;2022-07-21T01:36:56;26.80;57.30
18694;DHT22;9477;51.414;10.362;2022-07-21T01:39:01;26.80;57.50
18694;DHT22;9477;51.414;10.362;2022-07-21T01:41:22;26.80;57.50
18694;DHT22;9477;51.414;10.362;2022-07-21T01:43:34;26.80;57.50
18694;DHT22;9477;51.414;10.362;2022-07-21T01:45:37;26.90;57.50
18694;DHT22;9477;51.414;10.362;2022-07-21T01:47:40;26.90;57.30
18694;DHT22;9477;51.414;10.362;2022-07-21T01:49:43;27.00;57.30
18694;DHT22;9477;51.414;10.362;2022-07-21T01:51:46;27.00;57.40
18694;DHT22;9477;51.414;10.362;2022-07-21T01:53:49;27.00;57.40
18694;DHT22;9477;51.414;10.362;2022-07-21T01:55:53;26.90;57.60
18694;DHT22;9477;51.414;10.362;2022-07-21T01:57:56;26.90;57.80
18694;DHT22;9477;51.414;10.362;2022-07-21T01:59:59;26.80;58.50
18694;DHT22;9477;51.414;10.362;2022-07-21T02:02:02;26.70;58.30
18694;DHT22;9477;51.414;10.362;2022-07-21T02:04:05;26.70;58.80
18694;DHT22;9477;51.414;10.362;2022-07-21T02:06:08;26.60;58.60
18694;DHT22;9477;51.414;10.362;2022-07-21T02:08:11;26.60;58.90
18694;DHT22;9477;51.414;10.362;2022-07-21T02:10:13;26.60;58.60
18694;DHT22;9477;51.414;10.362;2022-07-21T02:12:17;26.50;59.00
18694;DHT22;9477;51.414;10.362;2022-07-21T02:14:20;26.50;59.00
18694;DHT22;9477;51.414;10.362;2022-07-21T02:16:23;26.50;59.10
18694;DHT22;9477;51.414;10.362;2022-07-21T02:18:26;26.50;59.20
18694;DHT22;9477;51.414;10.362;2022-07-21T02:20:29;26.40;59.70
18694;DHT22;9477;51.414;10.362;2022-07-21T02:22:32;26.30;59.60
18694;DHT22;9477;51.414;10.362;2022-07-21T02:24:34;26.30;59.70
18694;DHT22;9477;51.414;10.362;2022-07-21T02:26:37;26.30;59.90
18694;DHT22;9477;51.414;10.362;2022-07-21T02:28:41;26.30;59.60
18694;DHT22;9477;51.414;10.362;2022-07-21T02:30:44;26.40;59.60
18694;DHT22;9477;51.414;10.362;2022-07-21T02:32:47;26.20;60.20
18694;DHT22;9477;51.414;10.362;2022-07-21T02:34:50;26.10;60.10
18694;DHT22;9477;51.414;10.362;2022-07-21T02:36:53;26.00;60.80
18694;DHT22;9477;51.414;10.362;2022-07-21T02:38:56;26.00;60.70
18694;DHT22;9477;51.414;10.362;2022-07-21T02:40:58;25.90;61.20
18694;DHT22;9477;51.414;10.362;2022-07-21T02:43:02;25.80;61.50
18694;DHT22;9477;51.414;10.362;2022-07-21T02:45:08;25.70;61.70
18694;DHT22;9477;51.414;10.362;2022-07-21T02:47:11;25.60;62.00
18694;DHT22;9477;51.414;10.362;2022-07-21T02:49:14;25.60;62.10
18694;DHT22;9477;51.414;10.362;2022-07-21T02:51:17;25.60;61.70
18694;DHT22;9477;51.414;10.362;2022-07-21T02:53:20;25.70;61.50
18694;DHT22;9477;51.414;10.362;2022-07-21T02:55:25;25.70;61.60
18694;DHT22;9477;51.414;10.362;2022-07-21T02:57:28;25.80;61.40
18694;DHT22;9477;51.414;10.362;2022-07-21T02:59:31;25.80;61.60
18694;DHT22;9477;51.414;10.362;2022-07-21T03:01:35;25.90;61.30
18694;DHT22;9477;51.414;10.362;2022-07-21T03:03:38;26.00;61.10
18694;DHT22;9477;51.414;10.362;2022-07-21T03:05:41;26.00;60.90
18694;DHT22;9477;51.414;10.362;2022-07-21T03:07:44;26.00;60.50
18694;DHT22;9477;51.414;10.362;2022-07-21T03:09:47;26.10;60.30
18694;DHT22;9477;51.414;10.362;2022-07-21T03:11:49;26.10;60.50
18694;DHT22;9477;51.414;10.362;2022-07-21T03:13:52;26.10;61.20
18694;DHT22;9477;51.414;10.362;2022-07-21T03:15:55;26.10;60.70
18694;DHT22;9477;51.414;10.362;2022-07-21T03:17:59;26.20;60.90
18694;DHT22;9477;51.414;10.362;2022-07-21T03:20:03;26.20;61.10
18694;DHT22;9477;51.414;10.362;2022-07-21T03:22:06;26.20;61.20
18694;DHT22;9477;51.414;10.362;2022-07-21T03:24:08;26.30;61.40
18694;DHT22;9477;51.414;10.362;2022-07-21T03:26:11;26.30;61.60
18694;DHT22;9477;51.414;10.362;2022-07-21T03:28:15;26.30;61.50
18694;DHT22;9477;51.414;10.362;2022-07-21T03:30:18;26.30;61.50
18694;DHT22;9477;51.414;10.362;2022-07-21T03:32:23;26.30;61.50
18694;DHT22;9477;51.414;10.362;2022-07-21T03:34:27;26.30;61.80
18694;DHT22;9477;51.414;10.362;2022-07-21T03:36:30;26.30;62.20
18694;DHT22;9477;51.414;10.362;2022-07-21T03:38:32;26.20;62.30
18694;DHT22;9477;51.414;10.362;2022-07-21T03:40:36;26.20;62.30
18694;DHT22;9477;51.414;10.362;2022-07-21T03:42:39;26.20;62.70
18694;DHT22;9477;51.414;10.362;2022-07-21T03:44:42;26.20;63.00
18694;DHT22;9477;51.414;10.362;2022-07-21T03:46:45;26.20;62.90
18694;DHT22;9477;51.414;10.362;2022-07-21T03:48:47;26.10;63.10
18694;DHT22;9477;51.414;10.362;2022-07-21T03:50:55;26.10;63.10
18694;DHT22;9477;51.414;10.362;2022-07-21T03:52:58;26.00;63.20
18694;DHT22;9477;51.414;10.362;2022-07-21T03:55:02;26.00;63.50
18694;DHT22;9477;51.414;10.362;2022-07-21T03:57:16;25.90;63.40
18694;DHT22;9477;51.414;10.362;2022-07-21T03:59:18;25.90;63.90
18694;DHT22;9477;51.414;10.362;2022-07-21T04:01:22;25.90;64.20
18694;DHT22;9477;51.414;10.362;2022-07-21T04:03:25;25.80;64.30
18694;DHT22;9477;51.414;10.362;2022-07-21T04:05:29;25.70;64.30
18694;DHT22;9477;51.414;10.362;2022-07-21T04:07:33;25.80;64.20
18694;DHT22;9477;51.414;10.362;2022-07-21T04:09:37;25.70;64.30
18694;DHT22;9477;51.414;10.362;2022-07-21T04:11:40;25.80;64.40
18694;DHT22;9477;51.414;10.362;2022-07-21T04:13:42;25.70;64.60
18694;DHT22;9477;51.414;10.362;2022-07-21T04:15:45;25.60;65.30
18694;DHT22;9477;51.414;10.362;2022-07-21T04:17:49;25.60;65.30
18694;DHT22;9477;51.414;10.362;2022-07-21T04:19:51;25.60;65.80
18694;DHT22;9477;51.414;10.362;2022-07-21T04:21:58;25.60;66.10
18694;DHT22;9477;51.414;10.362;2022-07-21T04:24:03;25.60;66.20
18694;DHT22;9477;51.414;10.362;2022-07-21T04:26:06;25.70;66.00
18694;DHT22;9477;51.414;10.362;2022-07-21T04:28:09;25.70;66.90
18694;DHT22;9477;51.414;10.362;2022-07-21T04:30:14;25.70;66.00
18694;DHT22;9477;51.414;10.362;2022-07-21T04:32:17;25.70;65.80
18694;DHT22;9477;51.414;10.362;2022-07-21T04:34:20;25.70;65.70
18694;DHT22;9477;51.414;10.362;2022-07-21T04:36:23;25.80;65.70
18694;DHT22;9477;51.414;10.362;2022-07-21T04:38:26;25.80;65.40
18694;DHT22;9477;51.414;10.362;2022-07-21T04:40:30;25.90;65.30
18694;DHT22;9477;51.414;10.362;2022-07-21T04:42:33;25.90;65.40
18694;DHT22;9477;51.414;10.362;2022-07-21T04:44:37;26.00;65.10
18694;DHT22;9477;51.414;10.362;2022-07-21T04:46:39;26.00;65.00
18694;DHT22;9477;51.414;10.362;2022-07-21T04:48:42;26.10;65.00
18694;DHT22;9477;51.414;10.362;2022-07-21T04:50:45;26.00;65.30
18694;DHT22;9477;51.414;10.362;2022-07-21T04:52:48;25.90;65.60
18694;DHT22;9477;51.414;10.362;2022-07-21T04:54:51;25.90;65.70
18694;DHT22;9477;51.414;10.362;2022-07-21T04:56:55;25.90;65.60
18694;DHT22;9477;51.414;10.362;2022-07-21T04:58:58;25.90;65.80
18694;DHT22;9477;51.414;10.362;2022-07-21T05:01:01;25.90;66.10
18694;DHT22;9477;51.414;10.362;2022-07-21T05:03:04;25.90;66.30
18694;DHT22;9477;51.414;10.362;2022-07-21T05:05:07;25.90;66.80
18694;DHT22;9477;51.414;10.362;2022-07-21T05:07:10;26.00;67.00
18694;DHT22;9477;51.414;10.362;2022-07-21T05:09:13;26.10;66.90
18694;DHT22;9477;51.414;10.362;2022-07-21T05:11:16;26.20;67.10
18694;DHT22;9477;51.414;10.362;2022-07-21T05:13:20;26.30;66.90
18694;DHT22;9477;51.414;10.362;2022-07-21T05:15:23;26.40;66.40
18694;DHT22;9477;51.414;10.362;2022-07-21T05:17:26;26.50;66.30
18694;DHT22;9477;51.414;10.362;2022-07-21T05:19:29;26.60;66.70
18694;DHT22;9477;51.414;10.362;2022-07-21T05:21:32;26.60;66.20
18694;DHT22;9477;51.414;10.362;2022-07-21T05:23:34;26.70;65.80
18694;DHT22;9477;51.414;10.362;2022-07-21T05:25:37;26.80;65.70
18694;DHT22;9477;51.414;10.362;2022-07-21T05:27:40;26.90;65.30
18694;DHT22;9477;51.414;10.362;2022-07-21T05:29:44;27.00;65.20
18694;DHT22;9477;51.414;10.362;2022-07-21T05:31:47;27.10;65.00
18694;DHT22;9477;51.414;10.362;2022-07-21T05:33:50;27.10;64.80
18694;DHT22;9477;51.414;10.362;2022-07-21T05:35:53;27.20;64.20
18694;DHT22;9477;51.414;10.362;2022-07-21T05:37:56;27.10;64.60
18694;DHT22;9477;51.414;10.362;2022-07-21T05:39:59;27.10;64.30
18694;DHT22;9477;51.414;10.362;2022-07-21T05:42:02;27.10;64.30
18694;DHT22;9477;51.414;10.362;2022-07-21T05:44:05;27.20;64.10
18694;DHT22;9477;51.414;10.362;2022-07-21T05:46:09;27.30;63.90
18694;DHT22;9477;51.414;10.362;2022-07-21T05:48:12;27.30;63.60
18694;DHT22;9477;51.414;10.362;2022-07-21T05:50:16;27.30;63.50
18694;DHT22;9477;51.414;10.362;2022-07-21T05:52:18;27.40;63.60
18694;DHT22;9477;51.414;10.362;2022-07-21T05:54:22;27.30;63.80
18694;DHT22;9477;51.414;10.362;2022-07-21T05:56:25;27.40;63.70
18694;DHT22;9477;51.414;10.362;2022-07-21T05:58:28;27.30;63.50
18694;DHT22;9477;51.414;10.362;2022-07-21T06:00:31;27.30;64.20
18694;DHT22;9477;51.414;10.362;2022-07-21T06:02:35;27.30;64.20
18694;DHT22;9477;51.414;10.362;2022-07-21T06:04:38;27.20;64.30
18694;DHT22;9477;51.414;10.362;2022-07-21T06:06:40;27.10;64.30
18694;DHT22;9477;51.414;10.362;2022-07-21T06:08:45;27.30;64.70
18694;DHT22;9477;51.414;10.362;2022-07-21T06:10:48;27.40;64.70
18694;DHT22;9477;51.414;10.362;2022-07-21T06:12:51;27.50;64.10
18694;DHT22;9477;51.414;10.362;2022-07-21T06:14:53;27.40;64.40
18694;DHT22;9477;51.414;10.362;2022-07-21T06:16:56;27.20;64.30
18694;DHT22;9477;51.414;10.362;2022-07-21T06:19:01;27.10;64.50
18694;DHT22;9477;51.414;10.362;2022-07-21T06:21:04;27.10;64.90
18694;DHT22;9477;51.414;10.362;2022-07-21T06:23:07;27.00;64.90
18694;DHT22;9477;51.414;10.362;2022-07-21T06:25:10;27.00;65.30
18694;DHT22;9477;51.414;10.362;2022-07-21T06:27:13;27.00;64.90
18694;DHT22;9477;51.414;10.362;2022-07-21T06:29:15;27.00;65.30
18694;DHT22;9477;51.414;10.362;2022-07-21T06:31:18;26.70;65.80
18694;DHT22;9477;51.414;10.362;2022-07-21T06:33:21;26.50;66.50
18694;DHT22;9477;51.414;10.362;2022-07-21T06:35:25;26.50;66.80
18694;DHT22;9477;51.414;10.362;2022-07-21T06:37:28;26.50;66.80
18694;DHT22;9477;51.414;10.362;2022-07-21T06:39:31;26.50;66.50
18694;DHT22;9477;51.414;10.362;2022-07-21T06:41:34;26.50;66.30
18694;DHT22;9477;51.414;10.362;2022-07-21T06:43:37;26.50;66.40
18694;DHT22;9477;51.414;10.362;2022-07-21T06:45:39;26.40;66.40
18694;DHT22;9477;51.414;10.362;2022-07-21T06:47:42;26.40;66.60
18694;DHT22;9477;51.414;10.362;2022-07-21T06:49:45;26.40;66.60
18694;DHT22;9477;51.414;10.362;2022-07-21T06:51:49;26.40;66.50
18694;DHT22;9477;51.414;10.362;2022-07-21T06:53:52;26.50;66.40
18694;DHT22;9477;51.414;10.362;2022-07-21T06:55:56;26.50;66.30
18694;DHT22;9477;51.414;10.362;2022-07-21T06:58:12;26.60;66.70
18694;DHT22;9477;51.414;10.362;2022-07-21T07:00:16;26.70;66.80
18694;DHT22;9477;51.414;10.362;2022-07-21T07:02:18;26.90;67.10
18694;DHT22;9477;51.414;10.362;2022-07-21T07:04:22;27.10;66.10
18694;DHT22;9477;51.414;10.362;2022-07-21T07:06:25;27.30;65.70
18694;DHT22;9477;51.414;10.362;2022-07-21T07:08:29;27.40;65.50
18694;DHT22;9477;51.414;10.362;2022-07-21T07:10:32;27.60;65.20
18694;DHT22;9477;51.414;10.362;2022-07-21T07:12:34;27.70;64.70
18694;DHT22;9477;51.414;10.362;2022-07-21T07:14:58;27.80;64.60
18694;DHT22;9477;51.414;10.362;2022-07-21T07:17:02;27.90;64.20
18694;DHT22;9477;51.414;10.362;2022-07-21T07:19:05;28.00;64.20
18694;DHT22;9477;51.414;10.362;2022-07-21T07:21:08;28.10;64.10
18694;DHT22;9477;51.414;10.362;2022-07-21T07:23:12;28.10;63.90
18694;DHT22;9477;51.414;10.362;2022-07-21T07:25:19;28.20;63.60
18694;DHT22;9477;51.414;10.362;2022-07-21T07:27:31;28.40;63.60
18694;DHT22;9477;51.414;10.362;2022-07-21T07:29:35;28.60;63.00
18694;DHT22;9477;51.414;10.362;2022-07-21T07:31:38;28.70;62.70
18694;DHT22;9477;51.414;10.362;2022-07-21T07:33:41;28.70;62.60
18694;DHT22;9477;51.414;10.362;2022-07-21T07:35:43;28.80;62.50
18694;DHT22;9477;51.414;10.362;2022-07-21T07:37:46;28.50;62.30
18694;DHT22;9477;51.414;10.362;2022-07-21T07:39:49;28.50;62.50
18694;DHT22;9477;51.414;10.362;2022-07-21T07:41:53;28.40;62.50
18694;DHT22;9477;51.414;10.362;2022-07-21T07:43:57;28.40;62.90
18694;DHT22;9477;51.414;10.362;2022-07-21T07:46:01;28.50;62.70
18694;DHT22;9477;51.414;10.362;2022-07-21T07:48:05;28.60;62.60
18694;DHT22;9477;51.414;10.362;2022-07-21T07:50:10;28.70;62.10
18694;DHT22;9477;51.414;10.362;2022-07-21T07:52:13;28.80;62.00
18694;DHT22;9477;51.414;10.362;2022-07-21T07:54:16;28.90;61.80
18694;DHT22;9477;51.414;10.362;2022-07-21T07:56:19;29.00;61.30
18694;DHT22;9477;51.414;10.362;2022-07-21T07:58:23;29.10;61.10
18694;DHT22;9477;51.414;10.362;2022-07-21T08:00:26;29.10;61.10
18694;DHT22;9477;51.414;10.362;2022-07-21T08:02:49;29.20;61.20
18694;DHT22;9477;51.414;10.362;2022-07-21T08:04:52;29.20;60.60
18694;DHT22;9477;51.414;10.362;2022-07-21T08:06:55;29.20;60.50
18694;DHT22;9477;51.414;10.362;2022-07-21T08:08:58;29.30;60.20
18694;DHT22;9477;51.414;10.362;2022-07-21T08:11:01;29.40;60.10
18694;DHT22;9477;51.414;10.362;2022-07-21T08:13:03;29.40;60.00
18694;DHT22;9477;51.414;10.362;2022-07-21T08:15:10;29.40;59.80
18694;DHT22;9477;51.414;10.362;2022-07-21T08:17:13;29.40;59.40
18694;DHT22;9477;51.414;10.362;2022-07-21T08:19:17;29.40;59.50
18694;DHT22;9477;51.414;10.362;2022-07-21T08:21:20;29.60;59.70
18694;DHT22;9477;51.414;10.362;2022-07-21T08:23:23;29.90;59.90
18694;DHT22;9477;51.414;10.362;2022-07-21T08:25:26;30.10;59.50
18694;DHT22;9477;51.414;10.362;2022-07-21T08:27:29;30.40;59.00
18694;DHT22;9477;51.414;10.362;2022-07-21T08:29:32;30.50;58.70
18694;DHT22;9477;51.414;10.362;2022-07-21T08:31:36;30.70;58.40
18694;DHT22;9477;51.414;10.362;2022-07-21T08:33:39;30.80;58.30
18694;DHT22;9477;51.414;10.362;2022-07-21T08:35:42;30.90;57.40
18694;DHT22;9477;51.414;10.362;2022-07-21T08:37:53;30.70;56.40
18694;DHT22;9477;51.414;10.362;2022-07-21T08:39:56;30.40;56.80
18694;DHT22;9477;51.414;10.362;2022-07-21T08:41:59;30.10;57.70
18694;DHT22;9477;51.414;10.362;2022-07-21T08:44:02;29.80;58.40
18694;DHT22;9477;51.414;10.362;2022-07-21T08:46:05;29.60;59.30
18694;DHT22;9477;51.414;10.362;2022-07-21T08:48:09;29.40;59.70
18694;DHT22;9477;51.414;10.362;2022-07-21T08:50:12;29.00;60.10
18694;DHT22;9477;51.414;10.362;2022-07-21T08:52:15;29.00;60.80
18694;DHT22;9477;51.414;10.362;2022-07-21T08:54:19;28.90;60.70
18694;DHT22;9477;51.414;10.362;2022-07-21T08:56:22;28.50;60.50
18694;DHT22;9477;51.414;10.362;2022-07-21T08:58:25;28.60;59.00
18694;DHT22;9477;51.414;10.362;2022-07-21T09:00:28;28.50;59.00
18694;DHT22;9477;51.414;10.362;2022-07-21T09:02:32;28.70;59.60
18694;DHT22;9477;51.414;10.362;2022-07-21T09:04:37;28.80;59.40
18694;DHT22;9477;51.414;10.362;2022-07-21T09:06:50;28.80;58.90
18694;DHT22;9477;51.414;10.362;2022-07-21T09:08:53;29.00;57.70
18694;DHT22;9477;51.414;10.362;2022-07-21T09:11:15;28.90;57.60
18694;DHT22;9477;51.414;10.362;2022-07-21T09:13:18;28.60;57.60
18694;DHT22;9477;51.414;10.362;2022-07-21T09:15:24;28.10;57.10
18694;DHT22;9477;51.414;10.362;2022-07-21T09:17:27;28.30;58.00
18694;DHT22;9477;51.414;10.362;2022-07-21T09:19:51;28.40;58.30
18694;DHT22;9477;51.414;10.362;2022-07-21T09:21:56;28.40;57.60
18694;DHT22;9477;51.414;10.362;2022-07-21T09:24:17;28.60;57.80
18694;DHT22;9477;51.414;10.362;2022-07-21T09:26:20;28.80;57.80
18694;DHT22;9477;51.414;10.362;2022-07-21T09:28:24;28.70;57.40
18694;DHT22;9477;51.414;10.362;2022-07-21T09:30:27;28.50;56.80
18694;DHT22;9477;51.414;10.362;2022-07-21T09:32:48;28.40;57.50
18694;DHT22;9477;51.414;10.362;2022-07-21T09:34:54;28.20;58.20
18694;DHT22;9477;51.414;10.362;2022-07-21T09:36:58;28.30;58.90
18694;DHT22;9477;51.414;10.362;2022-07-21T09:39:00;28.40;59.70
18694;DHT22;9477;51.414;10.362;2022-07-21T09:41:07;28.60;58.30
18694;DHT22;9477;51.414;10.362;2022-07-21T09:43:10;29.00;58.70
18694;DHT22;9477;51.414;10.362;2022-07-21T09:45:14;29.50;58.10
18694;DHT22;9477;51.414;10.362;2022-07-21T09:47:22;29.20;55.20
18694;DHT22;9477;51.414;10.362;2022-07-21T09:49:31;29.40;55.30
18694;DHT22;9477;51.414;10.362;2022-07-21T09:51:55;29.20;55.20
18694;DHT22;9477;51.414;10.362;2022-07-21T09:54:00;29.00;56.10
18694;DHT22;9477;51.414;10.362;2022-07-21T09:56:04;28.70;56.70
18694;DHT22;9477;51.414;10.362;2022-07-21T09:58:06;28.70;56.80
18694;DHT22;9477;51.414;10.362;2022-07-21T10:00:11;28.70;57.00
18694;DHT22;9477;51.414;10.362;2022-07-21T10:02:21;28.60;56.60
18694;DHT22;9477;51.414;10.362;2022-07-21T10:04:25;28.30;56.60
18694;DHT22;9477;51.414;10.362;2022-07-21T10:06:48;28.40;56.80
18694;DHT22;9477;51.414;10.362;2022-07-21T10:08:53;28.50;57.50
18694;DHT22;9477;51.414;10.362;2022-07-21T10:10:57;28.70;57.40
18694;DHT22;9477;51.414;10.362;2022-07-21T10:13:19;29.00;57.10
18694;DHT22;9477;51.414;10.362;2022-07-21T10:15:23;29.30;56.60
18694;DHT22;9477;51.414;10.362;2022-07-21T10:17:26;29.50;55.80
18694;DHT22;9477;51.414;10.362;2022-07-21T10:19:34;29.60;55.20
18694;DHT22;9477;51.414;10.362;2022-07-21T10:21:44;29.70;54.80
18694;DHT22;9477;51.414;10.362;2022-07-21T10:23:50;29.90;55.30
18694;DHT22;9477;51.414;10.362;2022-07-21T10:25:57;30.00;53.60
18694;DHT22;9477;51.414;10.362;2022-07-21T10:28:14;30.10;53.30
18694;DHT22;9477;51.414;10.362;2022-07-21T10:30:36;30.20;53.50
18694;DHT22;9477;51.414;10.362;2022-07-21T10:32:49;30.20;52.30
18694;DHT22;9477;51.414;10.362;2022-07-21T10:34:52;30.10;52.20
18694;DHT22;9477;51.414;10.362;2022-07-21T10:36:55;30.20;53.20
18694;DHT22;9477;51.414;10.362;2022-07-21T10:41:38;30.80;51.00
18694;DHT22;9477;51.414;10.362;2022-07-21T10:43:43;31.00;50.30
18694;DHT22;9477;51.414;10.362;2022-07-21T10:45:45;31.10;50.00
18694;DHT22;9477;51.414;10.362;2022-07-21T10:47:48;31.20;49.80
18694;DHT22;9477;51.414;10.362;2022-07-21T10:49:53;31.20;49.70
18694;DHT22;9477;51.414;10.362;2022-07-21T10:51:56;31.10;49.50
18694;DHT22;9477;51.414;10.362;2022-07-21T10:54:19;30.90;48.60
18694;DHT22;9477;51.414;10.362;2022-07-21T10:56:26;30.90;49.20
18694;DHT22;9477;51.414;10.362;2022-07-21T10:58:31;30.90;49.30
18694;DHT22;9477;51.414;10.362;2022-07-21T11:00:35;31.00;49.70
18694;DHT22;9477;51.414;10.362;2022-07-21T11:02:38;31.00;49.30
18694;DHT22;9477;51.414;10.362;2022-07-21T11:05:06;31.00;49.70
18694;DHT22;9477;51.414;10.362;2022-07-21T11:07:09;30.80;49.30
18694;DHT22;9477;51.414;10.362;2022-07-21T11:09:13;30.80;49.60
18694;DHT22;9477;51.414;10.362;2022-07-21T11:11:18;30.70;50.00
18694;DHT22;9477;51.414;10.362;2022-07-21T11:13:21;30.70;49.70
18694;DHT22;9477;51.414;10.362;2022-07-21T11:15:46;30.70;50.00
18694;DHT22;9477;51.414;10.362;2022-07-21T11:17:49;30.40;49.60
18694;DHT22;9477;51.414;10.362;2022-07-21T11:19:52;30.50;50.00
18694;DHT22;9477;51.414;10.362;2022-07-21T11:21:56;30.70;50.60
18694;DHT22;9477;51.414;10.362;2022-07-21T11:23:59;30.90;50.40
18694;DHT22;9477;51.414;10.362;2022-07-21T11:26:02;31.00;50.00
18694;DHT22;9477;51.414;10.362;2022-07-21T11:28:16;31.10;49.40
18694;DHT22;9477;51.414;10.362;2022-07-21T11:30:19;31.20;49.20
18694;DHT22;9477;51.414;10.362;2022-07-21T11:32:24;31.30;49.40
18694;DHT22;9477;51.414;10.362;2022-07-21T11:34:41;31.30;48.90
18694;DHT22;9477;51.414;10.362;2022-07-21T11:36:45;31.30;47.90
18694;DHT22;9477;51.414;10.362;2022-07-21T11:39:10;31.20;48.30
18694;DHT22;9477;51.414;10.362;2022-07-21T11:41:17;31.40;48.20
18694;DHT22;9477;51.414;10.362;2022-07-21T11:43:20;31.50;48.30
18694;DHT22;9477;51.414;10.362;2022-07-21T11:45:51;31.50;47.80
18694;DHT22;9477;51.414;10.362;2022-07-21T11:47:55;31.50;47.50
18694;DHT22;9477;51.414;10.362;2022-07-21T11:50:00;31.60;48.10
18694;DHT22;9477;51.414;10.362;2022-07-21T11:52:04;31.60;47.30
18694;DHT22;9477;51.414;10.362;2022-07-21T11:54:19;31.70;46.80
18694;DHT22;9477;51.414;10.362;2022-07-21T11:56:22;31.40;46.30
18694;DHT22;9477;51.414;10.362;2022-07-21T11:58:25;31.40;46.90
18694;DHT22;9477;51.414;10.362;2022-07-21T12:00:27;31.50;47.40
18694;DHT22;9477;51.414;10.362;2022-07-21T12:02:30;31.60;47.40
18694;DHT22;9477;51.414;10.362;2022-07-21T12:04:38;31.50;47.10
18694;DHT22;9477;51.414;10.362;2022-07-21T12:06:42;31.60;47.20
18694;DHT22;9477;51.414;10.362;2022-07-21T12:08:45;31.80;47.30
18694;DHT22;9477;51.414;10.362;2022-07-21T12:10:47;31.90;47.00
18694;DHT22;9477;51.414;10.362;2022-07-21T12:12:51;32.00;46.10
18694;DHT22;9477;51.414;10.362;2022-07-21T12:14:53;31.90;45.30
18694;DHT22;9477;51.414;10.362;2022-07-21T12:17:03;32.20;46.20
18694;DHT22;9477;51.414;10.362;2022-07-21T12:19:09;32.40;46.00
18694;DHT22;9477;51.414;10.362;2022-07-21T12:21:14;32.50;45.40
18694;DHT22;9477;51.414;10.362;2022-07-21T12:23:20;32.30;45.40
18694;DHT22;9477;51.414;10.362;2022-07-21T12:25:31;32.40;45.50
18694;DHT22;9477;51.414;10.362;2022-07-21T12:27:36;32.30;45.00
18694;DHT22;9477;51.414;10.362;2022-07-21T12:29:40;32.00;44.30
18694;DHT22;9477;51.414;10.362;2022-07-21T12:31:42;32.00;44.80
18694;DHT22;9477;51.414;10.362;2022-07-21T12:33:45;31.90;45.00
18694;DHT22;9477;51.414;10.362;2022-07-21T12:36:09;31.90;44.90
18694;DHT22;9477;51.414;10.362;2022-07-21T12:38:14;32.10;44.90
18694;DHT22;9477;51.414;10.362;2022-07-21T12:40:18;32.10;44.50
18694;DHT22;9477;51.414;10.362;2022-07-21T12:42:29;32.20;44.80
18694;DHT22;9477;51.414;10.362;2022-07-21T12:44:33;32.20;44.40
18694;DHT22;9477;51.414;10.362;2022-07-21T12:46:35;32.50;45.30
18694;DHT22;9477;51.414;10.362;2022-07-21T12:48:41;32.60;45.10
18694;DHT22;9477;51.414;10.362;2022-07-21T12:51:01;32.90;44.50
18694;DHT22;9477;51.414;10.362;2022-07-21T12:53:05;32.70;43.30
18694;DHT22;9477;51.414;10.362;2022-07-21T12:55:09;32.50;43.30
18694;DHT22;9477;51.414;10.362;2022-07-21T12:57:12;32.60;44.20
18694;DHT22;9477;51.414;10.362;2022-07-21T12:59:14;32.70;44.70
18694;DHT22;9477;51.414;10.362;2022-07-21T13:01:19;32.80;44.50
18694;DHT22;9477;51.414;10.362;2022-07-21T13:03:22;32.90;44.50
18694;DHT22;9477;51.414;10.362;2022-07-21T13:05:31;33.00;44.00
18694;DHT22;9477;51.414;10.362;2022-07-21T13:07:34;33.10;44.10
18694;DHT22;9477;51.414;10.362;2022-07-21T13:09:37;33.20;42.90